Time;durP1;ratioP1;P1;durP2;ratioP2;P2;SDS_P1;SDS_P2;PMS_P1;PMS_P2;Temp;Humidity;BMP_temperature;BMP_pressure;BME280_temperature;BME280_humidity;BME280_pressure;Samples;Min_cycle;Max_cycle;Signal;HPM_P1;HPM_P2
2024/02/18 00:01:35;;;;;;;1363.43;999.90;;;;;;;21.24;41.39;103106.31;5005006;28;20733;-85
2024/02/18 00:04:01;;;;;;;1386.47;999.90;;;;;;;21.23;41.47;103099.34;5018526;28;20115;-85
2024/02/18 00:06:27;;;;;;;1389.07;999.90;;;;;;;21.19;41.31;103101.44;5019621;28;20041;-85
2024/02/18 00:08:53;;;;;;;1453.63;999.90;;;;;;;21.15;41.54;103102.66;5023967;28;20060;-85
2024/02/18 00:11:18;;;;;;;1345.80;999.90;;;;;;;21.17;41.57;103092.75;5018390;28;20046;-85
2024/02/18 00:13:44;;;;;;;1362.50;999.90;;;;;;;21.16;41.52;103085.78;5024145;28;20048;-85
2024/02/18 00:16:10;;;;;;;1333.17;999.90;;;;;;;20.60;41.32;102990.91;5011109;28;20042;-84
2024/02/18 00:18:36;;;;;;;1337.70;999.90;;;;;;;20.76;41.45;103019.56;5023029;28;20044;-84
2024/02/18 00:21:02;;;;;;;1333.93;999.90;;;;;;;20.86;41.47;103038.16;5019687;28;20454;-85
2024/02/18 00:23:28;;;;;;;1317.07;999.90;;;;;;;21.13;41.60;103075.47;5022016;28;20128;-85
2024/02/18 00:25:54;;;;;;;1323.90;999.90;;;;;;;20.98;41.50;103050.31;5021154;28;20061;-86
2024/02/18 00:28:20;;;;;;;1349.37;999.90;;;;;;;21.00;41.46;103054.50;5006363;28;20624;-85
2024/02/18 00:30:49;;;;;;;1348.33;999.90;;;;;;;20.75;41.34;103026.66;5020837;28;20132;-85
2024/02/18 00:33:15;;;;;;;1349.83;999.90;;;;;;;21.10;41.42;103071.28;5025470;28;20041;-86
2024/02/18 00:35:41;;;;;;;1382.10;999.90;;;;;;;20.85;41.59;103037.31;5019464;28;20049;-85
2024/02/18 00:38:06;;;;;;;1356.87;999.90;;;;;;;21.05;41.66;103065.53;5020664;28;20080;-86
2024/02/18 00:40:32;;;;;;;1332.33;999.90;;;;;;;21.07;41.59;103060.94;5019282;28;20037;-86
2024/02/18 00:42:57;;;;;;;1313.13;999.90;;;;;;;21.06;41.38;103064.56;5021653;28;20110;-85
2024/02/18 00:45:23;;;;;;;1310.03;999.90;;;;;;;20.79;41.65;103011.34;5018937;28;20033;-85
2024/02/18 00:47:48;;;;;;;1307.83;999.90;;;;;;;21.05;41.53;103054.09;5023047;28;20045;-85
2024/02/18 00:50:14;;;;;;;1293.67;999.90;;;;;;;20.72;41.39;102997.81;5019874;28;20045;-86
2024/02/18 00:52:40;;;;;;;1294.97;999.90;;;;;;;21.03;41.53;103035.72;5008421;28;20102;-85
2024/02/18 00:55:06;;;;;;;1302.93;999.90;;;;;;;21.02;41.48;103035.84;5020192;28;20612;-86
2024/02/18 00:57:31;;;;;;;1302.40;999.90;;;;;;;20.86;41.49;103014.31;5025712;28;20048;-85
2024/02/18 00:59:57;;;;;;;1285.00;999.90;;;;;;;20.73;41.40;102985.41;5021368;28;20045;-85
2024/02/18 01:02:22;;;;;;;1275.33;999.90;;;;;;;21.01;41.52;103031.53;5021745;28;20060;-85
2024/02/18 01:04:48;;;;;;;1282.13;999.90;;;;;;;20.88;41.45;103010.56;5021037;28;20408;-84
2024/02/18 01:07:13;;;;;;;1285.87;999.90;;;;;;;20.98;41.63;103023.81;5022303;28;20034;-85
2024/02/18 01:09:39;;;;;;;1267.40;999.90;;;;;;;20.85;41.63;103004.69;5021985;28;20037;-85
2024/02/18 01:12:05;;;;;;;1257.17;999.90;;;;;;;20.85;41.62;102999.41;5005293;28;20111;-85
2024/02/18 01:14:30;;;;;;;1238.03;997.33;;;;;;;20.64;41.44;102965.00;5024335;28;20537;-86
2024/02/18 01:16:57;;;;;;;1248.23;999.90;;;;;;;20.95;41.61;103022.28;5023984;28;20053;-86
2024/02/18 01:19:23;;;;;;;1253.03;999.90;;;;;;;20.93;41.54;103010.16;5022473;28;20049;-86
2024/02/18 01:21:48;;;;;;;1252.20;999.90;;;;;;;20.93;41.60;103012.78;5026722;28;20107;-85
2024/02/18 01:24:14;;;;;;;1249.33;999.90;;;;;;;20.93;41.53;103005.69;5024031;28;20069;-86
2024/02/18 01:26:39;;;;;;;1283.97;999.90;;;;;;;20.92;41.62;103001.38;5024131;28;20041;-85
2024/02/18 01:29:06;;;;;;;1278.43;999.90;;;;;;;20.90;41.49;102999.81;5024477;28;20048;-85
2024/02/18 01:31:32;;;;;;;1282.77;999.90;;;;;;;20.54;41.64;102942.97;5028454;28;20055;-85
2024/02/18 01:33:57;;;;;;;1282.80;999.90;;;;;;;20.90;41.69;102997.19;5021718;28;20130;-85
2024/02/18 01:36:23;;;;;;;1260.47;999.90;;;;;;;20.88;41.65;102985.88;5024073;28;20046;-85
2024/02/18 01:38:48;;;;;;;1296.73;999.90;;;;;;;20.88;41.78;102991.19;5004759;28;20056;-85
2024/02/18 01:41:14;;;;;;;1273.80;999.90;;;;;;;20.88;41.76;102978.78;5022800;28;20053;-85
2024/02/18 01:43:39;;;;;;;1287.80;999.90;;;;;;;20.72;41.72;102951.97;5022710;28;20052;-85
2024/02/18 01:46:05;;;;;;;1354.37;999.90;;;;;;;20.75;41.63;102957.81;5023048;28;20041;-86
2024/02/18 01:48:34;;;;;;;1324.63;999.90;;;;;;;20.84;41.54;102974.72;5022719;28;20163;-86
2024/02/18 01:51:00;;;;;;;1355.63;999.90;;;;;;;20.83;41.67;102972.22;5020988;28;20517;-86
2024/02/18 01:53:27;;;;;;;1316.37;999.90;;;;;;;20.72;41.56;102952.81;5023348;28;20049;-86
2024/02/18 01:55:55;;;;;;;1293.93;999.90;;;;;;;20.82;41.72;102963.41;5024677;28;20035;-86
2024/02/18 01:58:20;;;;;;;1498.43;900.65;;;;;;;20.69;41.66;102939.84;5024779;28;20045;-86
2024/02/18 02:00:48;;;;;;;1671.65;839.00;;;;;;;20.49;41.63;102908.97;5019792;28;20087;-86
2024/02/18 02:03:14;;;;;;;1750.35;999.90;;;;;;;20.69;41.59;102934.53;5019278;28;20041;-86
2024/02/18 02:05:41;;;;;;;1636.07;999.90;;;;;;;20.81;41.81;102949.31;5024853;28;20045;-86
2024/02/18 02:08:07;;;;;;;1678.70;999.90;;;;;;;20.50;41.71;102900.91;5022194;28;22035;-87
2024/02/18 02:10:33;;;;;;;1701.05;999.90;;;;;;;20.79;41.77;102947.78;5015633;28;20041;-86
2024/02/18 02:12:58;;;;;;;1680.55;999.90;;;;;;;20.79;41.82;102947.78;5022585;28;20075;-86
2024/02/18 02:15:24;;;;;;;1607.40;999.90;;;;;;;20.62;41.78;102922.78;5021662;28;20030;-86
2024/02/18 02:17:50;;;;;;;1639.68;999.90;;;;;;;20.77;41.83;102936.50;5019754;28;20037;-86
2024/02/18 02:20:16;;;;;;;1651.18;999.90;;;;;;;20.78;41.55;102939.00;5023141;28;20106;-86
2024/02/18 02:22:41;;;;;;;1681.53;999.90;;;;;;;20.77;41.79;102940.00;5001610;28;20161;-87
2024/02/18 02:25:11;;;;;;;1694.78;999.90;;;;;;;20.75;41.78;102947.22;5025674;28;20034;-86
2024/02/18 02:27:40;;;;;;;1670.72;999.90;;;;;;;20.76;41.85;102940.13;5024502;28;20622;-87
2024/02/18 02:30:07;;;;;;;1173.82;661.28;;;;;;;20.74;41.71;102934.97;5019875;28;20041;-87
2024/02/18 02:32:35;;;;;;;654.97;297.75;;;;;;;20.43;41.85;102875.09;5024429;28;20076;-87
2024/02/18 02:35:02;;;;;;;530.63;236.60;;;;;;;20.72;41.64;102926.31;5023943;28;20048;-87
2024/02/18 02:37:28;;;;;;;821.97;349.08;;;;;;;20.74;41.55;102926.19;5023678;28;20067;-87
2024/02/18 02:39:53;;;;;;;101.03;59.47;;;;;;;20.72;41.82;102913.09;5019777;28;20033;-85
2024/02/18 02:42:19;;;;;;;1092.43;524.05;;;;;;;20.72;41.72;102909.59;5023951;28;20458;-86
2024/02/18 02:44:45;;;;;;;612.58;278.25;;;;;;;20.71;41.63;102910.56;5026725;28;20044;-85
2024/02/18 02:47:10;;;;;;;972.22;433.70;;;;;;;20.58;41.83;102886.16;5019372;28;20033;-86
2024/02/18 02:49:36;;;;;;;1078.25;496.42;;;;;;;20.69;41.85;102899.28;5022443;28;20056;-86
2024/02/18 02:52:02;;;;;;;888.45;387.27;;;;;;;20.69;41.68;102896.63;5021088;28;20041;-86
2024/02/18 02:54:27;;;;;;;1002.50;435.70;;;;;;;20.45;41.80;102851.97;5024051;28;21116;-86
2024/02/18 02:56:53;;;;;;;1080.45;472.42;;;;;;;20.69;41.95;102894.00;5022570;28;20045;-86
2024/02/18 02:59:19;;;;;;;1098.00;489.85;;;;;;;20.48;41.83;102859.66;5021341;28;20041;-86
2024/02/18 03:01:45;;;;;;;1141.88;513.33;;;;;;;20.66;41.81;102889.81;5017649;28;20122;-86
2024/02/18 03:04:12;;;;;;;1142.85;512.17;;;;;;;20.64;41.98;102881.13;5023645;28;20053;-87
2024/02/18 03:06:37;;;;;;;1227.07;555.15;;;;;;;20.66;41.98;102870.44;5022108;28;20034;-86
2024/02/18 03:09:03;;;;;;;1202.60;538.47;;;;;;;20.65;41.76;102866.97;5020614;28;20053;-86
2024/02/18 03:11:28;;;;;;;1182.93;505.38;;;;;;;20.65;41.70;102866.13;5024497;28;20029;-86
2024/02/18 03:13:54;;;;;;;1259.38;566.40;;;;;;;20.57;41.95;102847.41;5022391;28;20042;-86
2024/02/18 03:16:20;;;;;;;934.03;397.33;;;;;;;19.54;41.80;102691.56;5024719;28;20690;-85
2024/02/18 03:18:45;;;;;;;1156.35;516.72;;;;;;;20.39;41.82;102818.94;5003008;28;20495;-86
2024/02/18 03:21:12;;;;;;;1227.90;540.72;;;;;;;20.27;41.85;102790.91;5021559;28;20421;-85
2024/02/18 03:23:38;;;;;;;1177.25;508.85;;;;;;;20.44;41.80;102808.78;5023615;28;20042;-85
2024/02/18 03:26:03;;;;;;;1222.88;529.42;;;;;;;20.46;41.76;102820.06;5018685;28;20111;-87
2024/02/18 03:28:29;;;;;;;1245.43;540.70;;;;;;;20.60;41.97;102841.84;5023874;28;20037;-86
2024/02/18 03:30:54;;;;;;;1263.22;557.10;;;;;;;20.59;41.92;102833.06;5022437;28;20041;-87
2024/02/18 03:33:20;;;;;;;1134.05;479.98;;;;;;;20.57;41.99;102824.44;5022889;28;20029;-84
2024/02/18 03:35:46;;;;;;;1236.80;548.03;;;;;;;20.60;41.95;102833.91;5020918;28;20496;-86
2024/02/18 03:38:12;;;;;;;1257.00;553.28;;;;;;;20.52;41.83;102821.38;5019439;28;20052;-87
2024/02/18 03:40:37;;;;;;;1217.43;533.75;;;;;;;20.26;41.92;102773.34;5022568;28;20478;-87
2024/02/18 03:43:04;;;;;;;1200.25;525.00;;;;;;;20.58;41.82;102807.56;5025829;28;20048;-87
2024/02/18 03:45:30;;;;;;;1234.03;534.10;;;;;;;20.49;41.82;102800.47;5005913;28;20428;-87
2024/02/18 03:47:55;;;;;;;1241.68;541.60;;;;;;;20.57;41.85;102815.66;5023862;28;20128;-86
2024/02/18 03:50:21;;;;;;;1245.50;543.58;;;;;;;20.56;41.80;102808.69;5017047;28;20128;-87
2024/02/18 03:52:47;;;;;;;1277.63;556.83;;;;;;;20.51;41.85;102802.00;5022425;28;20068;-86
2024/02/18 03:55:14;;;;;;;1219.30;532.70;;;;;;;20.39;41.91;102778.41;5022130;28;20088;-87
2024/02/18 03:57:40;;;;;;;1224.57;541.30;;;;;;;20.40;42.08;102780.91;5021737;28;20037;-87
2024/02/18 04:00:09;;;;;;;1245.13;546.35;;;;;;;20.56;41.96;102795.47;5020091;28;20056;-86
2024/02/18 04:02:40;;;;;;;1284.82;570.78;;;;;;;20.40;41.97;102764.19;5020989;28;20048;-87
2024/02/18 04:05:09;;;;;;;1245.45;545.25;;;;;;;20.53;41.83;102775.41;5006805;28;20103;-87
2024/02/18 04:07:34;;;;;;;1275.68;558.72;;;;;;;20.52;41.95;102771.09;5019922;28;20478;-86
2024/02/18 04:10:01;;;;;;;1240.13;546.67;;;;;;;20.53;41.91;102772.75;5021697;28;20119;-87
2024/02/18 04:12:27;;;;;;;1222.60;538.80;;;;;;;20.52;41.90;102769.28;5022907;28;20125;-87
2024/02/18 04:14:53;;;;;;;1119.38;485.98;;;;;;;20.52;41.91;102771.09;5022092;28;20037;-87
2024/02/18 04:17:18;;;;;;;1011.13;439.02;;;;;;;20.37;41.86;102735.38;5019079;28;20116;-87
2024/02/18 04:19:44;;;;;;;1063.07;462.02;;;;;;;20.49;41.96;102758.97;5023149;28;20053;-87
2024/02/18 04:22:09;;;;;;;1058.68;460.90;;;;;;;20.00;41.70;102685.75;5021364;28;20049;-87
2024/02/18 04:24:35;;;;;;;1088.30;477.50;;;;;;;20.50;41.99;102757.16;5020525;28;20107;-87
2024/02/18 04:27:00;;;;;;;1080.13;476.58;;;;;;;20.20;41.89;102703.31;5005525;28;20057;-87
2024/02/18 04:29:27;;;;;;;1096.57;479.63;;;;;;;20.45;41.87;102746.97;5019877;28;20052;-88
2024/02/18 04:31:52;;;;;;;1113.47;490.45;;;;;;;20.44;41.90;102737.34;5020567;28;20421;-85
2024/02/18 04:34:18;;;;;;;1112.18;494.50;;;;;;;20.47;41.92;102738.91;5017925;28;20037;-86
2024/02/18 04:36:47;;;;;;;1126.57;501.83;;;;;;;20.47;41.90;102738.91;5023549;28;20370;-86
2024/02/18 04:39:13;;;;;;;1108.82;493.67;;;;;;;20.27;41.99;102703.59;5022113;28;20055;-86
2024/02/18 04:41:38;;;;;;;1100.30;488.83;;;;;;;20.37;42.09;102720.31;5007902;28;20041;-86
2024/02/18 04:44:04;;;;;;;1103.35;486.02;;;;;;;20.46;42.02;102729.25;5021578;28;20048;-86
2024/02/18 04:46:29;;;;;;;1034.25;448.48;;;;;;;20.44;41.94;102718.81;5021756;28;20069;-85
2024/02/18 04:48:56;;;;;;;1120.63;501.02;;;;;;;20.43;41.80;102714.50;5024594;28;20033;-85
2024/02/18 04:51:22;;;;;;;1123.10;502.88;;;;;;;20.36;41.94;102700.13;5025291;28;20489;-85
2024/02/18 04:53:48;;;;;;;1132.07;511.50;;;;;;;20.26;41.96;102677.28;5025016;28;20044;-83
2024/02/18 04:56:13;;;;;;;1171.90;533.70;;;;;;;20.42;41.83;102704.91;5021706;28;20536;-85
2024/02/18 04:58:39;;;;;;;1169.32;527.85;;;;;;;20.29;41.74;102677.00;5025724;28;20041;-86
2024/02/18 05:01:04;;;;;;;1191.40;540.95;;;;;;;20.43;41.81;102706.56;5022346;28;20106;-85
2024/02/18 05:03:30;;;;;;;1092.13;473.70;;;;;;;20.39;41.98;102694.56;5026613;28;20099;-86
2024/02/18 05:05:55;;;;;;;1133.28;499.60;;;;;;;20.18;41.92;102655.00;5020645;28;20465;-85
2024/02/18 05:08:21;;;;;;;1097.20;482.60;;;;;;;20.34;41.78;102680.91;5008269;28;20044;-85
2024/02/18 05:10:46;;;;;;;1100.65;484.85;;;;;;;20.41;41.93;102683.88;5024601;28;20054;-85
2024/02/18 05:13:12;;;;;;;1106.03;486.88;;;;;;;20.35;41.97;102674.66;5025477;28;20156;-86
2024/02/18 05:15:37;;;;;;;1088.85;477.48;;;;;;;20.41;42.00;102679.41;5023109;28;20474;-86
2024/02/18 05:18:04;;;;;;;1060.65;465.52;;;;;;;20.28;41.86;102655.00;5024879;28;20542;-85
2024/02/18 05:20:29;;;;;;;1047.03;459.42;;;;;;;20.17;41.90;102639.28;5024375;28;20042;-86
2024/02/18 05:22:55;;;;;;;1039.88;456.30;;;;;;;20.39;42.01;102672.56;5025887;28;20165;-85
2024/02/18 05:25:20;;;;;;;1038.68;455.80;;;;;;;20.16;42.09;102624.38;5022590;28;20040;-85
2024/02/18 05:27:46;;;;;;;1040.30;454.10;;;;;;;20.39;42.00;102664.63;5024067;28;20104;-85
2024/02/18 05:30:12;;;;;;;1041.20;455.23;;;;;;;20.39;41.91;102665.47;5024837;28;20029;-83
2024/02/18 05:32:38;;;;;;;1050.13;460.40;;;;;;;20.40;41.77;102653.06;5019847;28;20065;-85
2024/02/18 05:35:04;;;;;;;1028.28;449.08;;;;;;;20.38;41.95;102653.19;5025185;28;20099;-84
2024/02/18 05:37:30;;;;;;;1027.25;450.77;;;;;;;20.39;42.06;102657.53;5023231;28;20138;-85
2024/02/18 05:39:55;;;;;;;1022.08;455.70;;;;;;;20.38;41.88;102639.13;5023764;28;20037;-85
2024/02/18 05:42:21;;;;;;;1024.57;457.50;;;;;;;20.37;41.73;102640.94;5022948;28;20041;-85
2024/02/18 05:44:47;;;;;;;1003.55;449.33;;;;;;;20.23;42.01;102610.44;5026752;28;20103;-86
2024/02/18 05:47:12;;;;;;;998.80;448.10;;;;;;;20.38;42.00;102637.31;5025096;28;20045;-85
2024/02/18 05:49:38;;;;;;;990.97;441.15;;;;;;;20.39;42.02;102633.69;5021350;28;20057;-85
2024/02/18 05:52:04;;;;;;;996.83;441.42;;;;;;;20.38;42.03;102629.38;5022724;28;20045;-86
2024/02/18 05:54:29;;;;;;;974.78;432.20;;;;;;;20.39;41.93;102624.94;5023257;28;20046;-85
2024/02/18 05:56:55;;;;;;;980.88;435.05;;;;;;;20.16;41.99;102590.00;5020507;28;20401;-86
2024/02/18 05:59:20;;;;;;;972.88;429.10;;;;;;;20.31;42.14;102606.28;5022168;28;20041;-85
2024/02/18 06:01:46;;;;;;;977.35;430.40;;;;;;;20.37;42.02;102608.38;5043859;28;20048;-85
2024/02/18 06:04:11;;;;;;;975.92;428.95;;;;;;;20.17;41.94;102579.28;5007237;28;20041;-85
2024/02/18 06:06:37;;;;;;;982.30;426.23;;;;;;;20.38;41.86;102602.94;5023746;28;20616;-85
2024/02/18 06:09:02;;;;;;;986.15;424.50;;;;;;;20.24;42.29;102571.59;5007478;28;20049;-85
2024/02/18 06:11:28;;;;;;;982.47;421.35;;;;;;;20.39;41.99;102590.53;5022690;28;20040;-84
2024/02/18 06:13:54;;;;;;;940.38;402.33;;;;;;;20.39;42.16;102585.25;5021410;28;20463;-86
2024/02/18 06:16:19;;;;;;;977.00;419.10;;;;;;;20.39;42.02;102575.50;5021487;28;20135;-85
2024/02/18 06:18:45;;;;;;;859.92;365.50;;;;;;;20.08;42.07;102529.00;5020095;28;21015;-85
2024/02/18 06:21:21;;;;;;;757.17;320.58;;;;;;;20.38;42.03;102579.13;5007096;28;20033;-85
2024/02/18 06:23:47;;;;;;;718.70;304.52;;;;;;;20.39;42.01;102580.78;5024172;28;20370;-85
2024/02/18 06:26:13;;;;;;;815.72;346.77;;;;;;;20.35;41.98;102567.97;5022998;28;20121;-86
2024/02/18 06:28:39;;;;;;;823.55;351.70;;;;;;;19.97;41.97;102503.56;5023242;28;20049;-85
2024/02/18 06:31:04;;;;;;;994.40;438.92;;;;;;;20.36;42.18;102573.13;5020885;28;20042;-85
2024/02/18 06:33:30;;;;;;;1009.58;445.45;;;;;;;20.38;42.11;102576.47;5024797;28;20356;-85
2024/02/18 06:35:55;;;;;;;980.35;433.58;;;;;;;20.07;41.97;102527.34;5023291;28;20045;-85
2024/02/18 06:38:21;;;;;;;1016.08;449.10;;;;;;;20.31;42.01;102561.31;5020955;28;20054;-85
2024/02/18 06:40:47;;;;;;;1026.45;450.63;;;;;;;20.08;42.11;102524.56;5021340;28;20045;-84
2024/02/18 06:43:12;;;;;;;1034.00;454.10;;;;;;;20.08;41.91;102516.63;5022941;28;20049;-85
2024/02/18 06:45:38;;;;;;;1029.28;452.02;;;;;;;20.37;42.06;102568.69;5023208;28;20048;-84
2024/02/18 06:48:04;;;;;;;1004.50;439.75;;;;;;;20.01;42.02;102501.47;5023247;28;20034;-85
2024/02/18 06:50:29;;;;;;;1006.83;440.13;;;;;;;20.35;42.10;102563.53;4992116;28;20615;-86
2024/02/18 06:52:55;;;;;;;995.85;435.58;;;;;;;20.37;42.04;102558.09;5005466;28;20049;-85
2024/02/18 06:55:21;;;;;;;997.00;436.40;;;;;;;20.17;42.07;102529.03;5019629;28;20048;-85
2024/02/18 06:57:46;;;;;;;1012.97;442.67;;;;;;;20.38;42.22;102554.47;5025301;28;20061;-85
2024/02/18 07:00:12;;;;;;;1021.88;443.88;;;;;;;20.08;42.00;102513.97;5022633;28;20056;-85
2024/02/18 07:02:38;;;;;;;1005.47;438.23;;;;;;;20.11;42.03;102511.06;5021949;28;20052;-85
2024/02/18 07:05:04;;;;;;;994.80;433.50;;;;;;;20.37;42.11;102552.81;5018791;28;20516;-85
2024/02/18 07:07:30;;;;;;;991.25;432.95;;;;;;;20.30;42.11;102541.97;5022944;28;20045;-85
2024/02/18 07:09:55;;;;;;;995.97;434.95;;;;;;;20.38;41.96;102549.19;5015985;28;20056;-85
2024/02/18 07:12:21;;;;;;;992.20;431.90;;;;;;;20.37;41.94;102548.34;5017859;28;20073;-85
2024/02/18 07:14:47;;;;;;;997.65;436.63;;;;;;;20.29;42.12;102535.00;5017978;28;20809;-85
2024/02/18 07:17:19;;;;;;;988.55;432.73;;;;;;;20.37;41.88;102550.16;5023801;28;20120;-85
2024/02/18 07:19:48;;;;;;;989.30;432.00;;;;;;;20.37;41.95;102544.88;5020122;28;20466;-86
2024/02/18 07:22:17;;;;;;;978.67;424.52;;;;;;;20.36;42.13;102546.66;5025336;28;20642;-85
2024/02/18 07:24:45;;;;;;;985.03;427.73;;;;;;;20.19;42.08;102515.66;5025295;28;20053;-85
2024/02/18 07:27:11;;;;;;;981.17;427.40;;;;;;;20.36;42.09;102545.84;5019010;28;20060;-85
2024/02/18 07:29:37;;;;;;;974.88;423.85;;;;;;;20.37;42.04;102536.94;5005794;28;20095;-85
2024/02/18 07:32:03;;;;;;;979.97;426.55;;;;;;;20.10;42.28;102497.97;5023488;28;20534;-85
2024/02/18 07:34:29;;;;;;;978.90;424.90;;;;;;;20.40;42.13;102534.00;5023800;28;20095;-86
2024/02/18 07:36:54;;;;;;;969.33;419.15;;;;;;;20.39;41.83;102535.81;5019115;28;20049;-86
2024/02/18 07:39:20;;;;;;;963.35;417.02;;;;;;;20.32;41.84;102518.84;5022760;28;20041;-86
2024/02/18 07:41:47;;;;;;;943.67;408.38;;;;;;;20.14;42.09;102481.69;5022071;28;20615;-86
2024/02/18 07:44:13;;;;;;;936.80;405.40;;;;;;;20.43;41.88;102523.97;5002231;28;20046;-87
2024/02/18 07:46:40;;;;;;;943.58;407.42;;;;;;;20.41;41.79;102511.88;5024256;28;20044;-88
2024/02/18 07:49:07;;;;;;;951.17;412.13;;;;;;;20.68;41.53;102521.72;5020779;28;20061;-86
2024/02/18 07:51:32;;;;;;;951.65;419.08;;;;;;;20.58;41.50;102484.66;5020711;28;20127;-86
2024/02/18 07:53:58;;;;;;;955.72;421.77;;;;;;;20.82;41.42;102518.56;5007608;28;20042;-86
2024/02/18 07:56:23;;;;;;;954.88;422.83;;;;;;;20.82;41.29;102518.56;5014268;28;20046;-85
2024/02/18 07:58:49;;;;;;;948.78;419.70;;;;;;;20.76;41.34;102504.09;5020271;28;20041;-86
2024/02/18 08:01:15;;;;;;;944.08;415.63;;;;;;;20.61;41.69;102473.78;5021686;28;20386;-87
2024/02/18 08:03:41;;;;;;;952.25;419.73;;;;;;;20.85;41.26;102514.81;5025970;28;20125;-86
2024/02/18 08:06:09;;;;;;;945.38;415.67;;;;;;;20.82;41.42;102502.69;5022146;28;20065;-87
2024/02/18 08:08:35;;;;;;;971.40;425.75;;;;;;;20.75;41.41;102485.72;5019452;28;20029;-86
2024/02/18 08:11:01;;;;;;;1106.30;470.58;;;;;;;20.70;42.64;102482.69;5021045;28;20044;-83
2024/02/18 08:13:27;;;;;;;1099.95;469.73;;;;;;;20.75;42.38;102489.19;5019542;28;20425;-85
2024/02/18 08:15:52;;;;;;;1090.38;465.45;;;;;;;20.68;42.08;102464.31;5017587;28;20049;-83
2024/02/18 08:18:18;;;;;;;1087.75;465.27;;;;;;;20.85;41.96;102480.41;5024804;28;20107;-83
2024/02/18 08:20:45;;;;;;;1064.25;454.33;;;;;;;20.59;41.62;102420.16;5026337;28;20053;-83
2024/02/18 08:23:11;;;;;;;1093.20;461.35;;;;;;;21.07;41.57;102488.78;5018420;28;20846;-82
2024/02/18 08:25:36;;;;;;;1126.55;475.60;;;;;;;20.98;41.41;102462.31;5019077;28;20160;-81
2024/02/18 08:28:02;;;;;;;1124.80;474.15;;;;;;;21.12;41.48;102483.03;5005698;28;20127;-83
2024/02/18 08:30:28;;;;;;;1091.05;460.88;;;;;;;21.15;41.46;102485.38;5026753;28;20517;-83
2024/02/18 08:32:54;;;;;;;1101.20;464.83;;;;;;;21.15;41.52;102474.78;5021098;28;20060;-82
2024/02/18 08:35:21;;;;;;;1104.75;468.13;;;;;;;21.15;41.40;102468.66;5020338;28;20063;-82
2024/02/18 08:37:49;;;;;;;1091.28;463.17;;;;;;;21.15;41.36;102468.66;5017982;28;20358;-83
2024/02/18 08:40:16;;;;;;;1056.35;446.10;;;;;;;20.84;41.43;102417.84;5016776;28;20034;-82
2024/02/18 08:42:42;;;;;;;1051.28;444.35;;;;;;;21.10;41.63;102472.59;5020731;28;20085;-83
2024/02/18 08:45:08;;;;;;;1040.82;442.38;;;;;;;20.97;41.75;102445.59;5022399;28;20148;-83
2024/02/18 08:47:34;;;;;;;1021.92;439.27;;;;;;;21.04;41.60;102457.28;5015614;28;20055;-82
2024/02/18 08:50:00;;;;;;;1044.40;450.38;;;;;;;20.91;41.79;102432.97;5034308;28;20037;-82
2024/02/18 08:52:26;;;;;;;1049.68;452.95;;;;;;;21.05;41.61;102458.13;5018746;28;20038;-83
2024/02/18 08:54:51;;;;;;;1044.50;450.10;;;;;;;21.03;41.82;102458.28;5016642;28;20048;-83
2024/02/18 08:57:17;;;;;;;1036.20;446.02;;;;;;;21.01;41.77;102457.59;5019271;28;20048;-83
2024/02/18 08:59:42;;;;;;;1038.18;446.92;;;;;;;20.66;41.69;102389.50;5021590;28;20037;-84
2024/02/18 09:02:08;;;;;;;1042.93;448.45;;;;;;;20.87;41.64;102428.97;5023600;28;20092;-84
2024/02/18 09:04:34;;;;;;;1054.65;451.33;;;;;;;20.91;41.73;102435.63;5018558;28;20046;-83
2024/02/18 09:06:59;;;;;;;1043.22;445.70;;;;;;;20.98;41.81;102449.91;5017221;28;20197;-81
2024/02/18 09:09:25;;;;;;;1047.88;447.33;;;;;;;20.52;41.72;102376.75;5019354;28;20041;-82
2024/02/18 09:11:51;;;;;;;1054.10;445.67;;;;;;;20.97;41.87;102442.13;5005203;28;20125;-80
2024/02/18 09:14:16;;;;;;;1060.45;447.38;;;;;;;20.96;41.68;102436.00;5017510;28;20044;-81
2024/02/18 09:16:42;;;;;;;1068.40;450.05;;;;;;;20.95;41.86;102444.09;5013733;28;20470;-82
2024/02/18 09:19:07;;;;;;;1064.70;448.50;;;;;;;20.85;41.75;102419.50;5014188;28;20049;-80
2024/02/18 09:21:33;;;;;;;1057.20;445.33;;;;;;;20.94;41.92;102437.13;5015319;28;20033;-81
2024/02/18 09:23:58;;;;;;;1062.80;449.45;;;;;;;20.95;41.67;102430.84;5018376;28;20080;-80
2024/02/18 09:26:25;;;;;;;1057.15;445.33;;;;;;;20.99;41.70;102421.63;5012234;28;20064;-80
2024/02/18 09:28:51;;;;;;;1055.28;445.58;;;;;;;21.09;41.28;102419.75;5016273;28;20644;-81
2024/02/18 09:31:17;;;;;;;1056.20;445.63;;;;;;;21.20;41.14;102427.50;5025371;28;20503;-80
2024/02/18 09:33:43;;;;;;;1070.88;451.77;;;;;;;21.12;40.90;102383.19;5018288;28;20042;-79
2024/02/18 09:36:08;;;;;;;1076.20;455.05;;;;;;;21.57;40.81;102411.47;5020907;28;20129;-81
2024/02/18 09:38:34;;;;;;;1078.40;456.63;;;;;;;21.65;40.43;102402.75;5018565;28;20529;-81
2024/02/18 09:41:00;;;;;;;1068.45;451.77;;;;;;;21.79;40.43;102407.50;5020778;28;20133;-81
2024/02/18 09:43:27;;;;;;;1056.35;445.10;;;;;;;21.75;40.49;102405.31;5022925;28;20041;-80
2024/02/18 09:45:55;;;;;;;1055.45;444.30;;;;;;;21.74;40.44;102403.66;5039421;28;20065;-81
2024/02/18 09:48:21;;;;;;;1034.32;438.95;;;;;;;21.65;40.98;102390.31;5017713;28;20057;-81
2024/02/18 09:50:51;;;;;;;1027.22;440.15;;;;;;;21.65;40.98;102389.50;5023335;28;20041;-81
2024/02/18 09:53:20;;;;;;;1015.53;435.05;;;;;;;21.46;40.67;102356.03;5019760;28;20041;-81
2024/02/18 09:55:49;;;;;;;1015.30;433.85;;;;;;;21.56;40.89;102372.69;5017388;28;20184;-82
2024/02/18 09:58:15;;;;;;;;;;;;;;;21.56;40.85;102383.31;5024984;28;20072;-81
2024/02/18 10:00:41;;;;;;;1029.35;436.08;;;;;;;21.53;40.95;102369.50;5021390;28;19921;-82
2024/02/18 10:03:08;;;;;;;1047.88;440.90;;;;;;;21.31;40.91;102323.13;5009637;28;20355;-82
2024/02/18 10:05:34;;;;;;;1041.78;437.63;;;;;;;21.56;40.78;102362.09;5003397;28;20169;-82
2024/02/18 10:08:04;;;;;;;1034.57;440.63;;;;;;;21.52;41.13;102358.06;5021656;28;20076;-81
2024/02/18 10:10:36;;;;;;;1009.20;431.98;;;;;;;21.49;40.93;102353.09;5023235;28;20040;-82
2024/02/18 10:13:04;;;;;;;1008.55;433.73;;;;;;;21.48;41.17;102347.94;5016306;28;20037;-81
2024/02/18 10:15:30;;;;;;;1015.72;436.85;;;;;;;21.48;40.98;102332.88;5017324;28;20049;-80
2024/02/18 10:17:56;;;;;;;605.47;261.20;;;;;;;21.39;41.22;102334.63;5020414;28;20026;-81
2024/02/18 10:20:22;;;;;;;608.55;262.50;;;;;;;21.47;41.32;102333.84;5002784;28;20045;-81
2024/02/18 10:22:48;;;;;;;620.85;267.70;;;;;;;21.36;41.26;102307.59;5019842;28;20052;-81
2024/02/18 10:25:13;;;;;;;624.90;269.70;;;;;;;21.37;41.17;102309.28;5025695;28;20041;-81
2024/02/18 10:27:40;;;;;;;608.60;262.60;;;;;;;21.56;40.92;102324.16;5021714;28;20045;-81
2024/02/18 10:30:11;;;;;;;590.83;255.52;;;;;;;21.67;40.92;102307.97;5020342;28;20045;-82
2024/02/18 10:32:37;;;;;;;572.92;247.73;;;;;;;21.87;40.37;102309.41;5020834;28;20037;-81
2024/02/18 10:35:04;;;;;;;561.17;242.70;;;;;;;21.64;40.52;102257.94;5021034;28;20100;-82
2024/02/18 10:37:36;;;;;;;565.65;243.77;;;;;;;21.95;40.31;102298.88;5022608;28;20029;-82
2024/02/18 10:40:15;;;;;;;525.22;226.52;;;;;;;21.53;40.50;102232.50;5036287;28;20776;-82
2024/02/18 10:42:45;;;;;;;501.10;215.52;;;;;;;21.64;40.56;102242.03;5022158;28;20051;-81
2024/02/18 10:45:12;;;;;;;;;;;;;;;21.85;40.52;102295.50;5025741;28;20144;-82